Accueil
METAR-TAF:

METAR-TAF

Aéroports :

Aéroport de Cherbourg - Maupertus

Cherbourg, France

latitude: 49-39N, longitude: 001-28W, altitude: 138 m

Observation

Le bulletin a été fait il y a 31 minutes, à 14:00 UTC
Vent 12 kt de sud-ouest
Température 19°C
Humidité 73%
Pression 1014 hPa
Visibilité 10 km ou plus
Nuages fragmentés à une hauteur de 2400 ft
Nuages fragmentés à une hauteur de 3000 ft

METAR: LFRC 191400Z AUTO 22012KT 9999 BKN024 BKN030 19/14 Q1014 NOSIG

Heure: 16:31 (14:31 UTC)

Prévision

Le bulletin a été fait il y a 3 heures et 31 minutes, à 11:00 UTC
Prévision valable du 19 à 12 UTC au 19 à 21 UTC
Vent 18 kt de sud/sud-ouest
Visibilité 10 km ou plus
Nuages épars à une hauteur de 1600 ft

TAF: LFRC 191100Z 1912/1921 21018KT 9999 SCT016

Observations et prévisions météorologiques de plus de 4000 aéroports (messages METAR et TAF).

Les stations disponibles sont représentées par des disques jaunes et rouges sur la carte.

Passer la souris dessus pour voir le nom de la station.

Cliquer dessus pour voir les observations et prévisions météorologiques.

Pour changer de carte: cliquez sur les boutons verts avec une croix noire pour zoomer, sur le bouton vert avec un tiret pour effectuer un zoom arrière, ou sur les flèches vertes pour les cartes adjacentes.


METAR-TAF: